Time;durP1;ratioP1;P1;durP2;ratioP2;P2;SDS_P1;SDS_P2;PMS_P1;PMS_P2;Temp;Humidity;BMP_temperature;BMP_pressure;BME280_temperature;BME280_humidity;BME280_pressure;Samples;Min_cycle;Max_cycle;Signal;HPM_P1;HPM_P2
2022/07/30 00:00:28;;;;;;;6.60;5.53;;;26.70;33.30;;;;;;5033616;28;20178;-47
2022/07/30 00:02:54;;;;;;;7.70;5.43;;;26.70;33.50;;;;;;5033525;28;20166;-48
2022/07/30 00:05:20;;;;;;;6.10;5.50;;;26.60;33.60;;;;;;5033426;28;20277;-46
2022/07/30 00:07:46;;;;;;;6.93;4.67;;;26.60;33.90;;;;;;5033348;28;20194;-46
2022/07/30 00:10:12;;;;;;;5.37;4.67;;;26.60;34.30;;;;;;5033332;28;20454;-46
2022/07/30 00:12:38;;;;;;;6.83;4.10;;;26.50;34.80;;;;;;5033331;28;20742;-46
2022/07/30 00:15:04;;;;;;;6.13;3.90;;;26.40;35.10;;;;;;5033210;28;20987;-46
2022/07/30 00:17:30;;;;;;;4.60;3.80;;;26.30;35.40;;;;;;5033302;28;20490;-46
2022/07/30 00:19:56;;;;;;;7.23;3.57;;;26.30;35.60;;;;;;5033290;28;21083;-46
2022/07/30 00:22:22;;;;;;;4.80;4.40;;;26.30;36.20;;;;;;5033182;28;20209;-45
2022/07/30 00:24:47;;;;;;;4.37;3.80;;;26.20;35.90;;;;;;5033004;28;20194;-47
2022/07/30 00:27:13;;;;;;;4.23;3.10;;;26.20;36.10;;;;;;5032832;28;20463;-47
2022/07/30 00:29:39;;;;;;;5.10;4.60;;;26.20;36.20;;;;;;5032962;28;20284;-47
2022/07/30 00:32:05;;;;;;;4.97;3.20;;;26.20;36.30;;;;;;5033057;28;20743;-47
2022/07/30 00:34:31;;;;;;;5.77;3.80;;;26.20;37.10;;;;;;5032934;28;20416;-47
2022/07/30 00:36:57;;;;;;;6.20;3.37;;;26.10;36.90;;;;;;5032624;28;20451;-48
2022/07/30 00:39:22;;;;;;;4.93;3.90;;;26.10;37.00;;;;;;5032979;28;20170;-46
2022/07/30 00:41:59;;;;;;;4.30;3.90;;;26.10;37.10;;;;;;5032772;28;20285;-45
2022/07/30 00:44:25;;;;;;;6.00;3.73;;;26.10;37.90;;;;;;5032800;28;20205;-46
2022/07/30 00:46:51;;;;;;;6.73;3.33;;;26.00;38.30;;;;;;5032793;28;20401;-46
2022/07/30 00:49:17;;;;;;;4.57;3.93;;;26.00;37.70;;;;;;5032678;28;20422;-47
2022/07/30 00:51:43;;;;;;;4.23;3.30;;;26.00;37.90;;;;;;5032694;28;20405;-48
2022/07/30 00:54:09;;;;;;;3.70;2.93;;;26.00;37.90;;;;;;5032570;28;20424;-46
2022/07/30 00:56:35;;;;;;;3.73;3.37;;;26.00;38.10;;;;;;5032367;28;20169;-49
2022/07/30 00:59:01;;;;;;;5.67;3.20;;;26.00;38.70;;;;;;5032474;28;20788;-45
2022/07/30 01:01:27;;;;;;;5.10;3.47;;;26.00;38.60;;;;;;5032554;28;20166;-46
2022/07/30 01:03:52;;;;;;;5.20;3.90;;;25.90;38.40;;;;;;5031769;28;20194;-45
2022/07/30 01:06:18;;;;;;;5.40;3.80;;;25.90;38.70;;;;;;5032238;28;20184;-45
2022/07/30 01:08:44;;;;;;;5.17;3.33;;;25.90;38.60;;;;;;5014663;28;20166;-47
2022/07/30 01:11:11;;;;;;;4.10;3.23;;;25.80;38.90;;;;;;5032260;28;20232;-47
2022/07/30 01:13:37;;;;;;;8.40;4.50;;;25.80;39.10;;;;;;5032174;28;20542;-46
2022/07/30 01:16:03;;;;;;;4.53;3.47;;;25.70;39.70;;;;;;5032119;28;20483;-46
2022/07/30 01:19:47;;;;;;;5.10;4.00;;;25.60;39.60;;;;;;5032318;28;20966;-46
2022/07/30 01:21:18;;;;;;;4.37;3.70;;;25.60;40.30;;;;;;5032047;28;20824;-46
2022/07/30 01:23:46;;;;;;;3.90;3.10;;;25.60;40.30;;;;;;5032040;28;20416;-46
2022/07/30 01:26:16;;;;;;;4.03;3.43;;;25.50;40.50;;;;;;5031857;28;20869;-46
2022/07/30 01:28:46;;;;;;;4.20;3.77;;;25.50;40.40;;;;;;5032299;28;20722;-46
2022/07/30 01:31:14;;;;;;;3.17;2.87;;;25.50;40.80;;;;;;5032063;28;21157;-45
2022/07/30 01:33:46;;;;;;;6.10;4.17;;;25.40;40.60;;;;;;5032000;28;20435;-45
2022/07/30 01:36:16;;;;;;;5.17;4.40;;;25.40;41.00;;;;;;5031905;28;20404;-46
2022/07/30 01:38:45;;;;;;;4.60;3.53;;;25.40;40.90;;;;;;5032024;28;20394;-46
2022/07/30 01:41:12;;;;;;;4.10;3.57;;;25.40;41.10;;;;;;5032005;28;20432;-46
2022/07/30 01:43:39;;;;;;;5.80;4.10;;;25.40;40.90;;;;;;5031729;28;20439;-47
2022/07/30 01:46:07;;;;;;;5.50;4.67;;;25.40;41.30;;;;;;5031819;28;20416;-46
2022/07/30 01:48:39;;;;;;;5.73;4.47;;;25.30;41.60;;;;;;5031862;28;20483;-45
2022/07/30 01:51:10;;;;;;;4.17;3.77;;;25.30;41.60;;;;;;5032055;28;20441;-45
2022/07/30 01:53:40;;;;;;;5.30;4.23;;;25.30;42.00;;;;;;5031809;28;20396;-45
2022/07/30 01:56:08;;;;;;;5.70;4.03;;;25.30;42.10;;;;;;5031602;28;20764;-44
2022/07/30 01:58:37;;;;;;;6.33;4.40;;;25.20;41.70;;;;;;5031869;28;20492;-45
2022/07/30 02:01:04;;;;;;;5.30;4.20;;;25.20;41.90;;;;;;5014060;28;20421;-46
2022/07/30 02:03:30;;;;;;;4.43;3.60;;;25.20;42.10;;;;;;5031752;28;20400;-46
2022/07/30 02:06:20;;;;;;;5.53;3.77;;;25.20;42.30;;;;;;5031534;28;20413;-45
2022/07/30 02:08:55;;;;;;;5.40;3.90;;;25.20;42.10;;;;;;5031020;28;20427;-45
2022/07/30 02:14:13;;;;;;;4.90;4.17;;;25.10;42.10;;;;;;5031693;28;20577;-46
2022/07/30 02:16:44;;;;;;;5.33;4.40;;;25.10;42.10;;;;;;5034390;28;20385;-47
2022/07/30 02:19:16;;;;;;;4.97;4.33;;;25.10;42.20;;;;;;5035733;28;20412;-46
2022/07/30 02:21:49;;;;;;;10.30;4.53;;;25.10;42.70;;;;;;5035595;28;20400;-45
2022/07/30 02:24:22;;;;;;;4.60;4.00;;;25.10;42.80;;;;;;5035277;28;20475;-45
2022/07/30 02:26:55;;;;;;;5.43;4.60;;;25.00;42.80;;;;;;5035274;28;20455;-46
2022/07/30 02:29:23;;;;;;;4.90;3.60;;;25.00;43.30;;;;;;5035471;28;20891;-45
2022/07/30 02:31:50;;;;;;;7.07;3.70;;;24.90;43.00;;;;;;5035444;28;20474;-45
2022/07/30 02:34:20;;;;;;;6.33;4.60;;;24.90;43.20;;;;;;5035216;28;20416;-46
2022/07/30 02:36:46;;;;;;;4.70;3.70;;;24.90;43.10;;;;;;5034979;28;20390;-45
2022/07/30 02:39:15;;;;;;;5.83;3.80;;;24.90;43.20;;;;;;5035058;28;20847;-45
2022/07/30 02:41:43;;;;;;;8.77;3.77;;;24.80;43.10;;;;;;5035157;28;20458;-46
2022/07/30 02:44:10;;;;;;;4.37;3.80;;;24.90;43.20;;;;;;5034853;28;20452;-44
2022/07/30 02:46:38;;;;;;;4.73;3.57;;;24.90;43.40;;;;;;5034886;28;20404;-45
2022/07/30 02:49:05;;;;;;;4.33;3.80;;;24.90;43.10;;;;;;5035045;28;20435;-47
2022/07/30 02:51:33;;;;;;;5.30;4.37;;;24.90;43.00;;;;;;5034835;28;20459;-45
2022/07/30 02:54:02;;;;;;;5.70;3.90;;;24.90;42.90;;;;;;5034795;28;20995;-45
2022/07/30 02:56:29;;;;;;;5.70;4.60;;;24.90;43.20;;;;;;5034662;28;20401;-45
2022/07/30 02:58:56;;;;;;;6.20;4.60;;;24.90;43.40;;;;;;5034807;28;20404;-46
2022/07/30 03:01:23;;;;;;;4.40;4.00;;;24.90;43.30;;;;;;5034813;28;20408;-48
2022/07/30 03:03:50;;;;;;;6.23;4.37;;;24.80;43.20;;;;;;5034671;28;20425;-45
2022/07/30 03:06:18;;;;;;;4.40;4.00;;;24.80;43.20;;;;;;5034372;28;20405;-45
2022/07/30 03:08:45;;;;;;;5.43;3.67;;;24.90;43.40;;;;;;5034517;28;20492;-47
2022/07/30 03:11:16;;;;;;;5.10;4.37;;;24.80;43.30;;;;;;5034533;28;20459;-45
2022/07/30 03:13:42;;;;;;;4.80;4.30;;;24.80;43.40;;;;;;5034621;28;20401;-45
2022/07/30 03:16:09;;;;;;;5.60;4.10;;;24.80;43.40;;;;;;5034334;28;20939;-45
2022/07/30 03:18:37;;;;;;;5.60;4.40;;;24.80;43.40;;;;;;5034388;28;20423;-46
2022/07/30 03:21:06;;;;;;;5.13;3.53;;;24.80;44.00;;;;;;5034404;28;20405;-44
2022/07/30 03:23:36;;;;;;;5.80;5.13;;;24.70;43.70;;;;;;5034183;28;20413;-47
2022/07/30 03:26:05;;;;;;;9.03;5.00;;;24.70;43.90;;;;;;5034200;28;20466;-45
2022/07/30 03:28:36;;;;;;;5.40;4.90;;;24.70;43.70;;;;;;5033461;28;20978;-45
2022/07/30 03:31:03;;;;;;;5.77;5.00;;;24.70;43.70;;;;;;5034166;28;20429;-45
2022/07/30 03:33:30;;;;;;;4.90;4.40;;;24.70;43.90;;;;;;5034018;28;20436;-46
2022/07/30 03:35:57;;;;;;;6.93;4.93;;;24.70;43.90;;;;;;5033940;28;20439;-45
2022/07/30 03:38:24;;;;;;;9.90;4.63;;;24.70;44.00;;;;;;5034028;28;20411;-47
2022/07/30 03:40:50;;;;;;;9.20;4.57;;;24.60;43.80;;;;;;5034251;28;20416;-46
2022/07/30 03:43:17;;;;;;;5.20;4.70;;;24.60;43.80;;;;;;5033955;28;20412;-45
2022/07/30 03:45:45;;;;;;;6.60;5.10;;;24.60;44.20;;;;;;5033533;28;20455;-45
2022/07/30 03:48:12;;;;;;;7.40;5.50;;;24.50;44.00;;;;;;5033887;28;20431;-47
2022/07/30 03:50:40;;;;;;;6.97;4.63;;;24.50;44.10;;;;;;5033795;28;20448;-45
2022/07/30 03:53:08;;;;;;;6.23;5.63;;;24.50;44.10;;;;;;5033800;28;20483;-45
2022/07/30 03:55:34;;;;;;;8.10;4.30;;;24.40;44.10;;;;;;5033627;28;20506;-46
2022/07/30 03:58:01;;;;;;;6.87;4.30;;;24.50;44.00;;;;;;5033667;28;20401;-45
2022/07/30 04:00:27;;;;;;;7.60;5.57;;;24.50;44.00;;;;;;5033667;28;20803;-45
2022/07/30 04:02:54;;;;;;;6.27;5.20;;;24.50;44.10;;;;;;5033631;28;20458;-45
2022/07/30 04:05:20;;;;;;;6.93;4.73;;;24.50;43.90;;;;;;5033481;28;20972;-46
2022/07/30 04:07:46;;;;;;;5.70;4.67;;;24.50;44.00;;;;;;5033370;28;20409;-46
2022/07/30 04:10:13;;;;;;;6.63;4.13;;;24.50;43.90;;;;;;5033436;28;20448;-45
2022/07/30 04:12:39;;;;;;;5.63;4.57;;;24.50;43.90;;;;;;5033414;28;20489;-45
2022/07/30 04:15:05;;;;;;;6.27;5.20;;;24.50;44.00;;;;;;5033282;28;20512;-45
2022/07/30 04:17:56;;;;;;;8.43;4.40;;;23.30;43.20;;;;;;5033328;28;20174;-45
2022/07/30 04:20:26;;;;;;;5.30;4.13;;;24.50;43.90;;;;;;5033357;28;20459;-46
2022/07/30 04:22:53;;;;;;;5.10;3.80;;;24.50;43.90;;;;;;5033174;28;20405;-45
2022/07/30 04:25:20;;;;;;;5.20;4.57;;;24.50;43.80;;;;;;5033036;28;20424;-46
2022/07/30 04:27:47;;;;;;;5.70;5.13;;;24.50;44.00;;;;;;5032864;28;20904;-45
2022/07/30 04:30:13;;;;;;;5.80;4.70;;;24.60;43.80;;;;;;5033112;28;20445;-45
2022/07/30 04:32:41;;;;;;;5.60;4.93;;;24.60;43.90;;;;;;5033055;28;20599;-46
2022/07/30 04:35:07;;;;;;;6.03;4.50;;;24.60;43.80;;;;;;5032880;28;20924;-45
2022/07/30 04:37:33;;;;;;;5.83;5.00;;;24.60;43.70;;;;;;5032738;28;20443;-44
2022/07/30 04:39:59;;;;;;;6.50;4.83;;;24.60;43.80;;;;;;5031982;28;20437;-45
2022/07/30 04:42:29;;;;;;;7.10;4.83;;;24.70;43.70;;;;;;5033208;28;20393;-45
2022/07/30 04:44:57;;;;;;;5.50;4.50;;;24.60;43.70;;;;;;5032866;28;20498;-46
2022/07/30 04:47:24;;;;;;;8.17;4.70;;;24.70;43.80;;;;;;5032577;28;20401;-45
2022/07/30 04:49:51;;;;;;;6.13;4.80;;;24.60;43.70;;;;;;5032659;28;20440;-44
2022/07/30 04:52:18;;;;;;;9.03;5.90;;;24.60;43.70;;;;;;5032682;28;20413;-46
2022/07/30 04:54:57;;;;;;;7.10;4.23;;;24.60;43.90;;;;;;5014872;28;20479;-45
2022/07/30 04:57:27;;;;;;;6.03;5.30;;;24.60;43.90;;;;;;5032344;28;20928;-46
2022/07/30 04:59:53;;;;;;;5.13;4.33;;;24.60;43.80;;;;;;5032506;28;20962;-47
2022/07/30 05:02:21;;;;;;;6.63;5.17;;;24.60;43.80;;;;;;5039339;23;20528;-46
2022/07/30 05:04:49;;;;;;;5.90;4.57;;;24.60;43.90;;;;;;5028270;28;20754;-47
2022/07/30 05:07:17;;;;;;;5.30;4.80;;;24.60;43.90;;;;;;5035008;28;20419;-45
2022/07/30 05:09:43;;;;;;;4.80;3.70;;;24.60;44.50;;;;;;5034726;28;21026;-47
2022/07/30 05:12:09;;;;;;;5.03;4.50;;;24.60;44.00;;;;;;5034340;28;20424;-49
2022/07/30 05:14:35;;;;;;;8.60;5.63;;;24.60;43.90;;;;;;5033602;28;20414;-49
2022/07/30 05:17:01;;;;;;;6.47;5.30;;;24.50;44.00;;;;;;5033698;28;20380;-49
2022/07/30 05:19:27;;;;;;;6.57;5.50;;;24.50;44.10;;;;;;5034004;28;20474;-49
2022/07/30 05:21:53;;;;;;;6.93;5.40;;;24.50;43.90;;;;;;5032147;28;20437;-49
2022/07/30 05:24:19;;;;;;;8.93;5.20;;;24.60;44.20;;;;;;5032970;28;20405;-49
2022/07/30 05:26:45;;;;;;;6.70;5.00;;;24.60;44.30;;;;;;5033463;28;20499;-49
2022/07/30 05:29:11;;;;;;;6.77;5.63;;;24.50;44.30;;;;;;5031784;28;20417;-49
2022/07/30 05:31:37;;;;;;;7.60;4.90;;;24.50;44.40;;;;;;5033342;28;20513;-49
2022/07/30 05:34:04;;;;;;;7.27;6.50;;;24.50;44.60;;;;;;5033360;28;20440;-49
2022/07/30 05:36:30;;;;;;;7.33;5.60;;;24.60;44.70;;;;;;5031906;28;20822;-49
2022/07/30 05:38:56;;;;;;;6.43;4.77;;;24.50;44.70;;;;;;5031302;28;20418;-49
2022/07/30 05:41:21;;;;;;;7.33;5.00;;;24.60;44.80;;;;;;5032117;28;20419;-50
2022/07/30 05:43:47;;;;;;;6.10;5.40;;;24.50;45.20;;;;;;5033074;28;20277;-48
2022/07/30 05:46:13;;;;;;;6.90;5.57;;;24.50;45.40;;;;;;5033597;28;20202;-49
2022/07/30 05:48:39;;;;;;;7.37;5.17;;;24.60;45.20;;;;;;5033603;28;20201;-49
2022/07/30 05:51:05;;;;;;;6.03;5.10;;;24.50;45.60;;;;;;5035791;28;20592;-50
2022/07/30 05:53:31;;;;;;;7.17;5.40;;;24.60;45.50;;;;;;5037618;28;20224;-48
2022/07/30 05:55:58;;;;;;;5.77;5.20;;;24.50;45.50;;;;;;5037329;28;20892;-48
2022/07/30 05:58:24;;;;;;;4.47;4.07;;;24.60;45.40;;;;;;5037252;28;20448;-49
2022/07/30 06:00:49;;;;;;;7.77;5.37;;;24.50;45.20;;;;;;5036798;28;20412;-49
2022/07/30 06:03:15;;;;;;;9.23;5.40;;;24.50;45.20;;;;;;5035782;28;20219;-50
2022/07/30 06:05:41;;;;;;;5.80;4.87;;;24.50;45.40;;;;;;5036229;28;20174;-50
2022/07/30 06:08:07;;;;;;;6.60;5.80;;;24.50;45.30;;;;;;5036977;28;20239;-48
2022/07/30 06:10:33;;;;;;;7.90;5.57;;;24.50;45.60;;;;;;5037038;28;20237;-49
2022/07/30 06:12:59;;;;;;;6.77;6.03;;;24.50;45.60;;;;;;5036188;28;20457;-48
2022/07/30 06:15:24;;;;;;;6.20;4.90;;;24.60;45.50;;;;;;5035594;28;20177;-49
2022/07/30 06:17:50;;;;;;;8.53;4.77;;;24.60;45.60;;;;;;5035406;28;20185;-49
2022/07/30 06:20:19;;;;;;;6.67;5.47;;;24.50;45.40;;;;;;5036419;28;20189;-49
2022/07/30 06:22:45;;;;;;;6.50;5.60;;;24.60;45.60;;;;;;5036387;28;20186;-48
2022/07/30 06:25:11;;;;;;;8.30;5.73;;;24.50;45.60;;;;;;5035690;28;20451;-50
2022/07/30 06:27:37;;;;;;;5.83;5.23;;;24.50;45.30;;;;;;5035259;28;20904;-49
2022/07/30 06:30:05;;;;;;;6.53;5.53;;;24.60;45.40;;;;;;5035306;28;20455;-49
2022/07/30 06:32:32;;;;;;;10.13;6.47;;;24.60;45.40;;;;;;5038091;28;20459;-49
2022/07/30 06:34:58;;;;;;;6.53;5.20;;;24.60;45.30;;;;;;5035219;28;20431;-50
2022/07/30 06:37:23;;;;;;;9.17;5.70;;;24.70;45.70;;;;;;5035346;28;20440;-48
2022/07/30 06:39:50;;;;;;;5.37;4.80;;;24.70;46.50;;;;;;5036899;28;20415;-48
2022/07/30 06:42:15;;;;;;;11.00;4.93;;;24.70;45.60;;;;;;5036547;28;20182;-49
2022/07/30 06:44:41;;;;;;;6.00;5.40;;;24.80;45.80;;;;;;5035659;28;20417;-48
2022/07/30 06:47:07;;;;;;;9.17;8.33;;;24.80;45.30;;;;;;5034768;28;20504;-50
2022/07/30 06:49:34;;;;;;;7.40;5.60;;;24.90;45.40;;;;;;5036264;28;20178;-48
2022/07/30 06:52:00;;;;;;;9.60;6.30;;;24.90;45.30;;;;;;5035200;28;20225;-50
2022/07/30 06:54:26;;;;;;;7.27;6.00;;;24.90;45.40;;;;;;5034903;28;20404;-50
2022/07/30 06:56:52;;;;;;;4.93;4.53;;;25.00;45.30;;;;;;5034817;28;20430;-49
2022/07/30 06:59:18;;;;;;;7.10;4.97;;;25.00;44.90;;;;;;5034840;28;20760;-49
2022/07/30 07:01:44;;;;;;;7.60;5.00;;;25.00;44.80;;;;;;5033906;28;20448;-50
2022/07/30 07:04:10;;;;;;;7.33;5.97;;;25.00;44.60;;;;;;5034541;28;20503;-50
2022/07/30 07:06:36;;;;;;;7.07;4.30;;;25.00;44.70;;;;;;5033278;28;20464;-49
2022/07/30 07:09:03;;;;;;;5.43;4.93;;;25.00;44.60;;;;;;5035982;28;20721;-49
2022/07/30 07:11:29;;;;;;;5.40;4.70;;;25.10;44.60;;;;;;5035979;28;20272;-49
2022/07/30 07:13:55;;;;;;;7.20;5.17;;;25.10;44.30;;;;;;5035791;28;20397;-49
2022/07/30 07:16:24;;;;;;;5.37;4.73;;;25.10;44.20;;;;;;5035658;28;20419;-49
2022/07/30 07:18:53;;;;;;;6.63;5.77;;;25.20;44.10;;;;;;5035673;28;20404;-49
2022/07/30 07:21:20;;;;;;;10.33;6.00;;;25.20;44.10;;;;;;5035534;28;20416;-50
2022/07/30 07:23:49;;;;;;;5.50;4.90;;;25.20;44.30;;;;;;5035677;28;20470;-48
2022/07/30 07:26:15;;;;;;;8.67;7.77;;;25.30;44.10;;;;;;5035093;28;20415;-49
2022/07/30 07:28:41;;;;;;;9.13;6.47;;;25.30;44.00;;;;;;5035504;28;20420;-50
2022/07/30 07:31:08;;;;;;;6.40;5.80;;;25.30;44.10;;;;;;5035382;28;20460;-50
2022/07/30 07:33:35;;;;;;;5.80;5.20;;;25.40;43.80;;;;;;5034880;28;20424;-50
2022/07/30 07:36:01;;;;;;;6.00;5.40;;;25.40;43.60;;;;;;5035127;28;20475;-47
2022/07/30 07:38:27;;;;;;;6.43;5.83;;;25.40;43.70;;;;;;5034969;28;20891;-49
2022/07/30 07:40:53;;;;;;;5.20;4.70;;;25.40;43.50;;;;;;5035090;28;20500;-48
2022/07/30 07:43:19;;;;;;;9.00;6.23;;;25.40;43.50;;;;;;5034866;28;20504;-47
2022/07/30 07:45:45;;;;;;;7.30;6.10;;;25.40;43.70;;;;;;5033781;28;20460;-49
2022/07/30 07:48:12;;;;;;;8.33;6.37;;;25.30;44.30;;;;;;5034962;28;20409;-49
2022/07/30 07:50:38;;;;;;;7.77;5.90;;;25.30;43.80;;;;;;5034354;28;20951;-49
2022/07/30 07:53:05;;;;;;;8.00;6.90;;;25.30;44.00;;;;;;5034466;28;20428;-50
2022/07/30 07:55:30;;;;;;;7.33;5.57;;;25.20;44.00;;;;;;5034481;28;20416;-50
2022/07/30 07:57:57;;;;;;;9.30;7.53;;;25.20;44.00;;;;;;5034851;28;20397;-49
2022/07/30 08:00:23;;;;;;;7.40;6.40;;;25.20;44.20;;;;;;5034678;28;20177;-49
2022/07/30 08:02:50;;;;;;;9.53;6.30;;;25.10;44.10;;;;;;5034527;28;20857;-49
2022/07/30 08:05:16;;;;;;;7.03;5.80;;;25.10;44.20;;;;;;5034771;28;20412;-49
2022/07/30 08:07:43;;;;;;;8.27;6.40;;;25.10;44.20;;;;;;5034829;28;20911;-50
2022/07/30 08:10:12;;;;;;;8.70;7.17;;;25.10;44.30;;;;;;5034581;28;20539;-50
2022/07/30 08:12:38;;;;;;;8.07;6.83;;;25.10;44.40;;;;;;5034231;28;20425;-49
2022/07/30 08:15:05;;;;;;;8.70;7.00;;;25.10;44.30;;;;;;5034679;28;20401;-50
2022/07/30 08:17:31;;;;;;;9.30;5.40;;;25.10;44.30;;;;;;5033312;28;20400;-49
2022/07/30 08:20:00;;;;;;;9.47;6.13;;;25.20;44.30;;;;;;5033468;28;20428;-48
2022/07/30 08:22:27;;;;;;;7.47;6.63;;;25.20;44.20;;;;;;5034641;28;20500;-49
2022/07/30 08:24:53;;;;;;;9.10;6.53;;;25.20;44.10;;;;;;5034611;28;20489;-49
2022/07/30 08:27:18;;;;;;;7.83;6.50;;;25.20;43.90;;;;;;5034530;28;20436;-49
2022/07/30 08:29:44;;;;;;;7.27;6.37;;;25.20;44.00;;;;;;5033531;28;21172;-47
2022/07/30 08:32:10;;;;;;;7.73;6.23;;;25.20;44.00;;;;;;5033818;28;20781;-50
2022/07/30 08:34:36;;;;;;;6.80;6.17;;;25.20;44.00;;;;;;5033656;28;20401;-48
2022/07/30 08:37:02;;;;;;;6.83;5.60;;;25.20;43.90;;;;;;5034305;28;20189;-49
2022/07/30 08:39:28;;;;;;;7.87;6.07;;;25.30;44.00;;;;;;5034867;28;20409;-50
2022/07/30 08:41:55;;;;;;;6.80;5.70;;;25.30;44.10;;;;;;5033581;28;20516;-49
2022/07/30 08:44:22;;;;;;;6.87;6.17;;;25.30;43.80;;;;;;5032711;28;20408;-50
2022/07/30 08:46:55;;;;;;;10.00;6.63;;;25.30;43.70;;;;;;5033787;28;20409;-49
2022/07/30 08:49:22;;;;;;;6.67;6.07;;;25.30;43.60;;;;;;5034301;28;20416;-49
2022/07/30 08:51:49;;;;;;;6.73;4.63;;;25.20;43.40;;;;;;5034018;28;20460;-49
2022/07/30 08:54:17;;;;;;;6.63;5.43;;;25.20;43.60;;;;;;5034276;28;20558;-49
2022/07/30 08:56:44;;;;;;;6.53;5.80;;;25.20;43.40;;;;;;5032990;28;20963;-49
2022/07/30 08:59:10;;;;;;;12.93;6.67;;;25.20;43.40;;;;;;5034201;28;20483;-49
2022/07/30 09:01:36;;;;;;;7.37;5.83;;;25.20;43.20;;;;;;5033220;28;20459;-50
2022/07/30 09:04:02;;;;;;;5.47;4.80;;;25.20;43.10;;;;;;5034184;28;20409;-50
2022/07/30 09:06:29;;;;;;;8.33;7.17;;;25.20;43.10;;;;;;5032555;28;20427;-48
2022/07/30 09:08:55;;;;;;;9.43;5.10;;;25.20;42.90;;;;;;5033103;28;20405;-49
2022/07/30 09:11:21;;;;;;;6.60;5.37;;;25.20;42.70;;;;;;5032713;28;20452;-48
2022/07/30 09:13:49;;;;;;;6.27;5.67;;;25.20;42.50;;;;;;5032659;28;20253;-50
2022/07/30 09:16:25;;;;;;;6.43;5.73;;;25.10;42.50;;;;;;5033166;28;20419;-50
2022/07/30 09:18:52;;;;;;;6.07;5.20;;;25.10;42.30;;;;;;5033631;28;20757;-49
2022/07/30 09:21:28;;;;;;;10.70;5.30;;;25.10;42.40;;;;;;5033419;28;20412;-49
2022/07/30 09:23:57;;;;;;;8.63;5.23;;;25.00;42.60;;;;;;5031860;28;20412;-48
2022/07/30 09:26:23;;;;;;;5.70;5.17;;;25.00;42.70;;;;;;5032475;28;20404;-49
2022/07/30 09:28:49;;;;;;;6.10;5.50;;;24.90;42.80;;;;;;5033041;28;20444;-49
2022/07/30 09:31:17;;;;;;;7.30;5.30;;;25.00;42.90;;;;;;5033227;28;20480;-50
2022/07/30 09:33:45;;;;;;;6.50;5.80;;;25.00;43.30;;;;;;5033598;28;20535;-51
2022/07/30 09:36:16;;;;;;;6.50;5.10;;;24.90;43.70;;;;;;5032576;28;20435;-51
2022/07/30 09:38:47;;;;;;;7.70;6.20;;;24.80;44.00;;;;;;5032803;28;20430;-50
2022/07/30 09:41:15;;;;;;;6.43;5.80;;;24.70;44.60;;;;;;5033323;28;20400;-48
2022/07/30 09:43:46;;;;;;;7.80;7.00;;;24.60;45.20;;;;;;5033394;28;20439;-48
2022/07/30 09:46:12;;;;;;;10.20;6.70;;;24.60;45.60;;;;;;5033950;28;20471;-50
2022/07/30 09:48:38;;;;;;;8.30;6.60;;;24.50;45.90;;;;;;5033461;28;20971;-49
2022/07/30 09:51:04;;;;;;;9.17;6.20;;;24.40;46.30;;;;;;5033888;28;20518;-49
2022/07/30 09:53:31;;;;;;;7.67;6.23;;;24.40;46.30;;;;;;5034707;28;20424;-50
2022/07/30 09:55:58;;;;;;;7.20;6.50;;;24.40;46.40;;;;;;5034048;28;20403;-49
2022/07/30 09:58:38;;;;;;;9.00;6.63;;;24.30;46.60;;;;;;5034662;28;20416;-50
2022/07/30 10:01:05;;;;;;;7.77;6.33;;;24.30;46.70;;;;;;5034427;28;20392;-50
2022/07/30 10:03:31;;;;;;;10.07;7.57;;;24.30;46.90;;;;;;5033561;28;20531;-49
2022/07/30 10:05:59;;;;;;;7.67;6.37;;;24.30;47.00;;;;;;5032214;28;20408;-49
2022/07/30 10:08:49;;;;;;;8.13;7.33;;;24.30;47.00;;;;;;5031976;28;20497;-48
2022/07/30 10:11:21;;;;;;;6.43;5.73;;;24.30;47.50;;;;;;5034065;28;20523;-50
2022/07/30 10:13:55;;;;;;;7.40;6.70;;;24.30;47.50;;;;;;5032523;28;20931;-49
2022/07/30 10:16:25;;;;;;;6.83;6.13;;;24.40;47.60;;;;;;5033476;28;20381;-49
2022/07/30 10:18:54;;;;;;;6.83;5.90;;;24.40;47.70;;;;;;5034191;28;20405;-50
2022/07/30 10:21:20;;;;;;;9.30;6.23;;;24.50;47.40;;;;;;5031699;28;20413;-49
2022/07/30 10:23:46;;;;;;;10.70;7.10;;;24.50;47.30;;;;;;5031681;28;20911;-49
2022/07/30 10:26:12;;;;;;;8.30;7.27;;;24.40;47.10;;;;;;5033131;28;20436;-50
2022/07/30 10:28:40;;;;;;;6.00;5.20;;;24.40;47.10;;;;;;5033683;28;20442;-49
2022/07/30 10:31:06;;;;;;;7.20;5.90;;;24.50;47.30;;;;;;5034135;28;20472;-50
2022/07/30 10:33:32;;;;;;;11.17;6.93;;;24.50;47.50;;;;;;5034518;28;20467;-49
2022/07/30 10:35:58;;;;;;;7.47;6.77;;;24.50;47.60;;;;;;5033607;28;20416;-49
2022/07/30 10:38:31;;;;;;;8.00;6.37;;;24.60;47.70;;;;;;5037161;28;20200;-50
2022/07/30 10:41:06;;;;;;;8.57;6.20;;;24.70;47.80;;;;;;5035634;28;20392;-49
2022/07/30 10:43:50;;;;;;;8.93;6.60;;;24.80;47.60;;;;;;5036956;28;20428;-47
2022/07/30 10:46:25;;;;;;;8.43;7.40;;;24.90;47.90;;;;;;5033986;28;20408;-49
2022/07/30 10:48:51;;;;;;;8.47;6.83;;;24.90;47.50;;;;;;5037012;28;20891;-49
2022/07/30 10:51:17;;;;;;;17.33;6.97;;;25.00;47.50;;;;;;5036840;28;20451;-47
2022/07/30 10:53:46;;;;;;;6.80;6.10;;;25.00;47.10;;;;;;5036061;28;20409;-47
2022/07/30 10:56:19;;;;;;;7.63;6.70;;;25.10;47.20;;;;;;5037701;28;20181;-48
2022/07/30 10:59:00;;;;;;;9.67;7.03;;;25.10;46.90;;;;;;5037921;28;20401;-46
2022/07/30 11:01:46;;;;;;;7.10;6.40;;;25.10;46.70;;;;;;5036543;28;20419;-48
2022/07/30 11:04:21;;;;;;;6.30;5.67;;;25.20;47.20;;;;;;5036966;28;20412;-47
2022/07/30 11:06:48;;;;;;;7.20;5.70;;;25.20;46.30;;;;;;5036945;28;20502;-48
2022/07/30 11:09:39;;;;;;;7.30;6.40;;;25.20;46.30;;;;;;5037220;28;20693;-48
2022/07/30 11:12:07;;;;;;;7.27;5.87;;;25.30;46.30;;;;;;5034789;28;20516;-48
2022/07/30 11:14:59;;;;;;;8.10;6.60;;;25.30;46.10;;;;;;5034570;28;20401;-49
2022/07/30 11:17:25;;;;;;;8.17;5.57;;;25.40;46.20;;;;;;5031235;28;20512;-47
2022/07/30 11:20:04;;;;;;;9.80;5.47;;;25.50;45.80;;;;;;5035192;28;20432;-47
2022/07/30 11:22:34;;;;;;;9.13;6.50;;;25.60;45.50;;;;;;5035006;28;20472;-47
2022/07/30 11:25:01;;;;;;;6.37;5.43;;;25.60;45.00;;;;;;5035319;28;20377;-48
2022/07/30 11:27:45;;;;;;;7.60;6.57;;;25.60;44.90;;;;;;5035111;28;20501;-49
2022/07/30 11:30:19;;;;;;;6.80;6.00;;;25.70;45.00;;;;;;5034783;28;20455;-47
2022/07/30 11:33:13;;;;;;;6.67;5.40;;;25.90;44.80;;;;;;5034346;28;20478;-47
2022/07/30 11:35:39;;;;;;;7.27;6.07;;;26.00;44.90;;;;;;5034798;28;20417;-48
2022/07/30 11:38:17;;;;;;;7.87;6.57;;;26.00;45.00;;;;;;5040377;23;20506;-48
2022/07/30 11:40:48;;;;;;;9.90;6.60;;;26.20;44.50;;;;;;5020831;28;20512;-48
2022/07/30 11:43:19;;;;;;;7.80;6.27;;;26.30;44.20;;;;;;5033996;28;20803;-48
2022/07/30 11:46:04;;;;;;;8.70;5.77;;;26.40;44.00;;;;;;5033800;28;20395;-47
2022/07/30 11:48:30;;;;;;;7.53;5.87;;;26.50;43.40;;;;;;5033252;28;20420;-47
2022/07/30 11:50:56;;;;;;;9.50;6.73;;;26.60;42.10;;;;;;5033933;28;20459;-48
2022/07/30 11:53:23;;;;;;;6.50;5.70;;;26.60;42.10;;;;;;5033770;28;20900;-48
2022/07/30 11:55:58;;;;;;;6.93;6.13;;;26.60;41.80;;;;;;5033720;28;21003;-48
2022/07/30 11:58:37;;;;;;;8.50;6.00;;;26.70;41.90;;;;;;5033692;28;20424;-45
2022/07/30 12:01:05;;;;;;;8.10;6.60;;;26.70;42.00;;;;;;5034042;28;20487;-46
2022/07/30 12:03:31;;;;;;;5.03;4.53;;;26.70;42.10;;;;;;5033589;28;20413;-47
2022/07/30 12:06:05;;;;;;;5.70;4.70;;;26.70;41.50;;;;;;5033376;28;20405;-47
2022/07/30 12:08:42;;;;;;;7.50;5.73;;;26.70;41.30;;;;;;5033420;28;20425;-46
2022/07/30 12:11:08;;;;;;;5.70;4.90;;;26.70;41.50;;;;;;5033716;28;20439;-46
2022/07/30 12:13:35;;;;;;;6.07;3.93;;;26.70;41.40;;;;;;5033417;28;20409;-49
2022/07/30 12:16:10;;;;;;;6.30;5.60;;;26.70;40.90;;;;;;5033103;28;20462;-47
2022/07/30 12:18:36;;;;;;;5.47;4.87;;;26.70;41.20;;;;;;5033311;28;20380;-47
2022/07/30 12:21:04;;;;;;;5.80;4.80;;;26.70;40.90;;;;;;5033298;28;20417;-48
2022/07/30 12:23:30;;;;;;;6.13;5.00;;;26.70;40.60;;;;;;5033306;28;20414;-47
2022/07/30 12:25:57;;;;;;;7.17;4.80;;;26.80;40.40;;;;;;5032994;28;20459;-49
2022/07/30 12:28:28;;;;;;;7.23;3.90;;;26.80;40.60;;;;;;5033099;28;20954;-49
2022/07/30 12:30:55;;;;;;;6.43;4.57;;;26.80;40.20;;;;;;5032972;28;20440;-47
2022/07/30 12:33:21;;;;;;;4.87;4.40;;;26.90;39.90;;;;;;5033237;28;20415;-48
2022/07/30 12:35:58;;;;;;;6.23;5.63;;;26.90;40.70;;;;;;5032831;28;20404;-48
2022/07/30 12:38:26;;;;;;;5.50;4.97;;;27.00;40.50;;;;;;5032881;28;20440;-47
2022/07/30 12:40:58;;;;;;;5.43;4.73;;;27.00;40.80;;;;;;5032789;28;20495;-48
2022/07/30 12:43:43;;;;;;;7.93;5.90;;;27.00;40.70;;;;;;5032922;28;20467;-49
2022/07/30 12:46:09;;;;;;;6.93;5.40;;;27.00;40.20;;;;;;5032795;28;20408;-49
2022/07/30 12:48:35;;;;;;;6.00;5.40;;;27.10;40.40;;;;;;5032788;28;20483;-50
2022/07/30 12:51:08;;;;;;;5.33;4.83;;;27.00;41.10;;;;;;5032644;28;20455;-49
2022/07/30 12:53:34;;;;;;;7.40;5.37;;;27.10;40.30;;;;;;5032961;28;20804;-47